sensor_id;sensor_type;location;lat;lon;timestamp;temperature;humidity
21787;DHT22;11055;50.870;4.316;2023-08-08T00:01:04;16.80;99.90
21787;DHT22;11055;50.870;4.316;2023-08-08T00:03:29;16.80;99.90
21787;DHT22;11055;50.870;4.316;2023-08-08T00:05:55;17.00;99.90
21787;DHT22;11055;50.870;4.316;2023-08-08T00:08:21;17.10;99.90
21787;DHT22;11055;50.870;4.316;2023-08-08T00:10:47;17.10;99.90
21787;DHT22;11055;50.870;4.316;2023-08-08T00:13:12;17.10;99.90
21787;DHT22;11055;50.870;4.316;2023-08-08T00:15:38;17.20;99.90
21787;DHT22;11055;50.870;4.316;2023-08-08T00:18:04;17.20;99.90
21787;DHT22;11055;50.870;4.316;2023-08-08T00:20:30;17.20;99.90
21787;DHT22;11055;50.870;4.316;2023-08-08T00:22:55;17.20;99.90
21787;DHT22;11055;50.870;4.316;2023-08-08T00:25:21;17.10;99.90
21787;DHT22;11055;50.870;4.316;2023-08-08T00:27:47;17.10;99.90
21787;DHT22;11055;50.870;4.316;2023-08-08T00:30:12;17.10;99.90
21787;DHT22;11055;50.870;4.316;2023-08-08T00:32:39;17.00;99.90
21787;DHT22;11055;50.870;4.316;2023-08-08T00:35:05;16.90;99.90
21787;DHT22;11055;50.870;4.316;2023-08-08T00:37:30;16.80;99.90
21787;DHT22;11055;50.870;4.316;2023-08-08T00:39:56;16.80;99.90
21787;DHT22;11055;50.870;4.316;2023-08-08T00:42:22;16.70;99.90
21787;DHT22;11055;50.870;4.316;2023-08-08T00:44:48;16.60;99.90
21787;DHT22;11055;50.870;4.316;2023-08-08T00:47:14;16.60;99.90
21787;DHT22;11055;50.870;4.316;2023-08-08T00:49:40;16.50;99.90
21787;DHT22;11055;50.870;4.316;2023-08-08T00:52:06;16.60;99.90
21787;DHT22;11055;50.870;4.316;2023-08-08T00:54:33;16.50;99.90
21787;DHT22;11055;50.870;4.316;2023-08-08T00:56:58;16.40;99.90
21787;DHT22;11055;50.870;4.316;2023-08-08T00:59:24;16.40;99.90
21787;DHT22;11055;50.870;4.316;2023-08-08T01:01:50;16.40;99.90
21787;DHT22;11055;50.870;4.316;2023-08-08T01:04:16;16.50;99.90
21787;DHT22;11055;50.870;4.316;2023-08-08T01:09:37;16.60;99.90
21787;DHT22;11055;50.870;4.316;2023-08-08T01:12:06;16.50;99.90
21787;DHT22;11055;50.870;4.316;2023-08-08T01:14:34;16.30;99.90
21787;DHT22;11055;50.870;4.316;2023-08-08T01:17:02;16.20;99.90
21787;DHT22;11055;50.870;4.316;2023-08-08T01:19:29;16.10;99.90
21787;DHT22;11055;50.870;4.316;2023-08-08T01:22:01;15.90;99.90
21787;DHT22;11055;50.870;4.316;2023-08-08T01:24:28;15.80;99.90
21787;DHT22;11055;50.870;4.316;2023-08-08T01:26:56;15.90;99.90
21787;DHT22;11055;50.870;4.316;2023-08-08T01:29:22;15.90;99.90
21787;DHT22;11055;50.870;4.316;2023-08-08T01:31:47;16.00;99.90
21787;DHT22;11055;50.870;4.316;2023-08-08T01:34:13;16.10;99.90
21787;DHT22;11055;50.870;4.316;2023-08-08T01:39:25;16.00;99.90
21787;DHT22;11055;50.870;4.316;2023-08-08T01:41:53;16.00;99.90
21787;DHT22;11055;50.870;4.316;2023-08-08T01:44:21;16.10;99.90
21787;DHT22;11055;50.870;4.316;2023-08-08T01:46:49;16.10;99.90
21787;DHT22;11055;50.870;4.316;2023-08-08T01:49:14;16.00;99.90
21787;DHT22;11055;50.870;4.316;2023-08-08T01:51:40;15.70;99.90
21787;DHT22;11055;50.870;4.316;2023-08-08T01:54:06;15.60;99.90
21787;DHT22;11055;50.870;4.316;2023-08-08T01:56:32;15.50;99.90
21787;DHT22;11055;50.870;4.316;2023-08-08T01:58:57;15.50;99.90
21787;DHT22;11055;50.870;4.316;2023-08-08T02:01:23;15.60;99.90
21787;DHT22;11055;50.870;4.316;2023-08-08T02:03:49;15.60;99.90
21787;DHT22;11055;50.870;4.316;2023-08-08T02:06:14;15.70;99.90
21787;DHT22;11055;50.870;4.316;2023-08-08T02:08:40;15.80;99.90
21787;DHT22;11055;50.870;4.316;2023-08-08T02:11:06;15.90;99.90
21787;DHT22;11055;50.870;4.316;2023-08-08T02:13:32;15.80;99.90
21787;DHT22;11055;50.870;4.316;2023-08-08T02:15:58;15.70;99.90
21787;DHT22;11055;50.870;4.316;2023-08-08T02:18:23;15.70;99.90
21787;DHT22;11055;50.870;4.316;2023-08-08T02:20:49;15.60;99.90
21787;DHT22;11055;50.870;4.316;2023-08-08T02:23:15;15.70;99.90
21787;DHT22;11055;50.870;4.316;2023-08-08T02:25:40;15.60;99.90
21787;DHT22;11055;50.870;4.316;2023-08-08T02:28:06;15.60;99.90
21787;DHT22;11055;50.870;4.316;2023-08-08T02:30:32;15.60;99.90
21787;DHT22;11055;50.870;4.316;2023-08-08T02:32:57;15.40;99.90
21787;DHT22;11055;50.870;4.316;2023-08-08T02:35:23;15.20;99.90
21787;DHT22;11055;50.870;4.316;2023-08-08T02:37:49;15.10;99.90
21787;DHT22;11055;50.870;4.316;2023-08-08T02:40:14;15.00;99.90
21787;DHT22;11055;50.870;4.316;2023-08-08T02:42:40;14.90;99.90
21787;DHT22;11055;50.870;4.316;2023-08-08T02:45:06;14.90;99.90
21787;DHT22;11055;50.870;4.316;2023-08-08T02:47:32;14.90;99.90
21787;DHT22;11055;50.870;4.316;2023-08-08T02:49:57;14.90;99.90
21787;DHT22;11055;50.870;4.316;2023-08-08T02:52:23;15.20;99.90
21787;DHT22;11055;50.870;4.316;2023-08-08T02:54:49;15.40;99.90
21787;DHT22;11055;50.870;4.316;2023-08-08T02:57:15;15.40;99.90
21787;DHT22;11055;50.870;4.316;2023-08-08T02:59:41;15.40;99.90
21787;DHT22;11055;50.870;4.316;2023-08-08T03:02:07;15.30;99.90
21787;DHT22;11055;50.870;4.316;2023-08-08T03:04:32;15.50;99.90
21787;DHT22;11055;50.870;4.316;2023-08-08T03:06:58;15.50;99.90
21787;DHT22;11055;50.870;4.316;2023-08-08T03:09:24;15.50;99.90
21787;DHT22;11055;50.870;4.316;2023-08-08T03:11:49;15.50;99.90
21787;DHT22;11055;50.870;4.316;2023-08-08T03:14:15;15.60;99.90
21787;DHT22;11055;50.870;4.316;2023-08-08T03:16:41;15.70;99.90
21787;DHT22;11055;50.870;4.316;2023-08-08T03:19:06;15.70;99.90
21787;DHT22;11055;50.870;4.316;2023-08-08T03:21:32;15.80;99.90
21787;DHT22;11055;50.870;4.316;2023-08-08T03:23:58;15.70;99.90
21787;DHT22;11055;50.870;4.316;2023-08-08T03:26:24;15.60;99.90
21787;DHT22;11055;50.870;4.316;2023-08-08T03:28:49;15.70;99.90
21787;DHT22;11055;50.870;4.316;2023-08-08T03:31:19;15.70;99.90
21787;DHT22;11055;50.870;4.316;2023-08-08T03:33:44;15.80;99.90
21787;DHT22;11055;50.870;4.316;2023-08-08T03:36:10;15.70;99.90
21787;DHT22;11055;50.870;4.316;2023-08-08T03:38:35;15.90;99.90
21787;DHT22;11055;50.870;4.316;2023-08-08T03:41:03;16.00;99.90
21787;DHT22;11055;50.870;4.316;2023-08-08T03:43:29;16.00;99.90
21787;DHT22;11055;50.870;4.316;2023-08-08T03:45:55;15.90;99.90
21787;DHT22;11055;50.870;4.316;2023-08-08T03:48:20;15.80;99.90
21787;DHT22;11055;50.870;4.316;2023-08-08T03:50:46;15.80;99.90
21787;DHT22;11055;50.870;4.316;2023-08-08T03:53:12;15.70;99.90
21787;DHT22;11055;50.870;4.316;2023-08-08T03:55:38;15.80;99.90
21787;DHT22;11055;50.870;4.316;2023-08-08T03:58:04;15.70;99.90
21787;DHT22;11055;50.870;4.316;2023-08-08T04:00:31;15.40;99.90
21787;DHT22;11055;50.870;4.316;2023-08-08T04:02:56;15.10;99.90
21787;DHT22;11055;50.870;4.316;2023-08-08T04:05:25;14.90;99.90
21787;DHT22;11055;50.870;4.316;2023-08-08T04:07:50;15.00;99.90
21787;DHT22;11055;50.870;4.316;2023-08-08T04:10:16;14.90;99.90
21787;DHT22;11055;50.870;4.316;2023-08-08T04:12:42;14.90;99.90
21787;DHT22;11055;50.870;4.316;2023-08-08T04:15:08;14.90;99.90
21787;DHT22;11055;50.870;4.316;2023-08-08T04:17:34;15.00;99.90
21787;DHT22;11055;50.870;4.316;2023-08-08T04:20:00;15.00;99.90
21787;DHT22;11055;50.870;4.316;2023-08-08T04:22:26;15.10;99.90
21787;DHT22;11055;50.870;4.316;2023-08-08T04:24:51;15.20;99.90
21787;DHT22;11055;50.870;4.316;2023-08-08T04:27:17;15.30;99.90
21787;DHT22;11055;50.870;4.316;2023-08-08T04:29:45;15.30;99.90
21787;DHT22;11055;50.870;4.316;2023-08-08T04:32:11;15.20;99.90
21787;DHT22;11055;50.870;4.316;2023-08-08T04:34:37;15.10;99.90
21787;DHT22;11055;50.870;4.316;2023-08-08T04:37:02;15.10;99.90
21787;DHT22;11055;50.870;4.316;2023-08-08T04:39:28;14.90;99.90
21787;DHT22;11055;50.870;4.316;2023-08-08T04:41:54;14.80;99.90
21787;DHT22;11055;50.870;4.316;2023-08-08T04:44:19;14.90;99.90
21787;DHT22;11055;50.870;4.316;2023-08-08T04:46:45;14.70;99.90
21787;DHT22;11055;50.870;4.316;2023-08-08T04:49:11;14.70;99.90
21787;DHT22;11055;50.870;4.316;2023-08-08T04:51:36;14.60;99.90
21787;DHT22;11055;50.870;4.316;2023-08-08T04:54:02;14.60;99.90
21787;DHT22;11055;50.870;4.316;2023-08-08T04:56:28;14.60;99.90
21787;DHT22;11055;50.870;4.316;2023-08-08T04:58:53;14.60;99.90
21787;DHT22;11055;50.870;4.316;2023-08-08T05:01:19;14.50;99.90
21787;DHT22;11055;50.870;4.316;2023-08-08T05:03:46;14.40;99.90
21787;DHT22;11055;50.870;4.316;2023-08-08T05:06:11;14.20;99.90
21787;DHT22;11055;50.870;4.316;2023-08-08T05:08:37;14.20;99.90
21787;DHT22;11055;50.870;4.316;2023-08-08T05:11:03;14.20;99.90
21787;DHT22;11055;50.870;4.316;2023-08-08T05:13:30;14.20;99.90
21787;DHT22;11055;50.870;4.316;2023-08-08T05:15:55;14.30;99.90
21787;DHT22;11055;50.870;4.316;2023-08-08T05:18:21;14.30;99.90
21787;DHT22;11055;50.870;4.316;2023-08-08T05:20:46;14.40;99.90
21787;DHT22;11055;50.870;4.316;2023-08-08T05:23:12;14.30;99.90
21787;DHT22;11055;50.870;4.316;2023-08-08T05:25:38;14.30;99.90
21787;DHT22;11055;50.870;4.316;2023-08-08T05:28:03;14.30;99.90
21787;DHT22;11055;50.870;4.316;2023-08-08T05:30:29;14.20;99.90
21787;DHT22;11055;50.870;4.316;2023-08-08T05:32:55;14.20;99.90
21787;DHT22;11055;50.870;4.316;2023-08-08T05:35:20;14.10;99.90
21787;DHT22;11055;50.870;4.316;2023-08-08T05:37:46;14.10;99.90
21787;DHT22;11055;50.870;4.316;2023-08-08T05:40:12;14.20;99.90
21787;DHT22;11055;50.870;4.316;2023-08-08T05:42:38;14.30;99.90
21787;DHT22;11055;50.870;4.316;2023-08-08T05:45:04;14.30;99.90
21787;DHT22;11055;50.870;4.316;2023-08-08T05:47:30;14.30;99.90
21787;DHT22;11055;50.870;4.316;2023-08-08T05:49:56;14.40;99.90
21787;DHT22;11055;50.870;4.316;2023-08-08T05:52:21;14.50;99.90
21787;DHT22;11055;50.870;4.316;2023-08-08T05:54:47;14.50;99.90
21787;DHT22;11055;50.870;4.316;2023-08-08T05:57:13;14.50;99.90
21787;DHT22;11055;50.870;4.316;2023-08-08T05:59:39;14.40;99.90
21787;DHT22;11055;50.870;4.316;2023-08-08T06:02:04;14.40;99.90
21787;DHT22;11055;50.870;4.316;2023-08-08T06:04:30;14.40;99.90
21787;DHT22;11055;50.870;4.316;2023-08-08T06:06:56;14.40;99.90
21787;DHT22;11055;50.870;4.316;2023-08-08T06:09:21;14.40;99.90
21787;DHT22;11055;50.870;4.316;2023-08-08T06:11:48;14.30;99.90
21787;DHT22;11055;50.870;4.316;2023-08-08T06:14:13;14.40;99.90
21787;DHT22;11055;50.870;4.316;2023-08-08T06:16:39;14.40;99.90
21787;DHT22;11055;50.870;4.316;2023-08-08T06:19:04;14.50;99.90
21787;DHT22;11055;50.870;4.316;2023-08-08T06:21:31;14.60;99.90
21787;DHT22;11055;50.870;4.316;2023-08-08T06:23:57;14.70;99.90
21787;DHT22;11055;50.870;4.316;2023-08-08T06:26:23;14.70;99.90
21787;DHT22;11055;50.870;4.316;2023-08-08T06:28:48;14.90;99.90
21787;DHT22;11055;50.870;4.316;2023-08-08T06:31:14;14.90;99.90
21787;DHT22;11055;50.870;4.316;2023-08-08T06:33:40;14.90;99.90
21787;DHT22;11055;50.870;4.316;2023-08-08T06:36:06;14.80;99.90
21787;DHT22;11055;50.870;4.316;2023-08-08T06:38:32;14.90;99.90
21787;DHT22;11055;50.870;4.316;2023-08-08T06:41:00;14.90;99.90
21787;DHT22;11055;50.870;4.316;2023-08-08T06:43:26;14.90;99.90
21787;DHT22;11055;50.870;4.316;2023-08-08T06:45:51;14.90;99.90
21787;DHT22;11055;50.870;4.316;2023-08-08T06:48:17;14.90;99.90
21787;DHT22;11055;50.870;4.316;2023-08-08T06:50:43;14.90;99.90
21787;DHT22;11055;50.870;4.316;2023-08-08T06:53:08;14.90;99.90
21787;DHT22;11055;50.870;4.316;2023-08-08T06:55:34;14.90;99.90
21787;DHT22;11055;50.870;4.316;2023-08-08T06:58:00;15.00;99.90
21787;DHT22;11055;50.870;4.316;2023-08-08T07:00:26;15.00;99.90
21787;DHT22;11055;50.870;4.316;2023-08-08T07:02:53;15.10;99.90
21787;DHT22;11055;50.870;4.316;2023-08-08T07:05:18;15.10;99.90
21787;DHT22;11055;50.870;4.316;2023-08-08T07:07:44;15.10;99.90
21787;DHT22;11055;50.870;4.316;2023-08-08T07:10:10;15.10;99.90
21787;DHT22;11055;50.870;4.316;2023-08-08T07:12:38;15.20;99.90
21787;DHT22;11055;50.870;4.316;2023-08-08T07:15:06;15.30;99.90
21787;DHT22;11055;50.870;4.316;2023-08-08T07:17:32;15.30;99.90
21787;DHT22;11055;50.870;4.316;2023-08-08T07:19:58;15.30;99.90
21787;DHT22;11055;50.870;4.316;2023-08-08T07:22:24;15.30;99.90
21787;DHT22;11055;50.870;4.316;2023-08-08T07:24:49;15.30;99.90
21787;DHT22;11055;50.870;4.316;2023-08-08T07:27:15;15.30;99.90
21787;DHT22;11055;50.870;4.316;2023-08-08T07:29:41;15.20;99.90
21787;DHT22;11055;50.870;4.316;2023-08-08T07:32:07;15.30;99.90
21787;DHT22;11055;50.870;4.316;2023-08-08T07:34:32;15.40;99.90
21787;DHT22;11055;50.870;4.316;2023-08-08T07:36:58;15.50;99.90
21787;DHT22;11055;50.870;4.316;2023-08-08T07:39:24;15.50;99.90
21787;DHT22;11055;50.870;4.316;2023-08-08T07:41:51;15.50;99.90
21787;DHT22;11055;50.870;4.316;2023-08-08T07:44:17;15.50;99.90
21787;DHT22;11055;50.870;4.316;2023-08-08T07:46:43;15.50;99.90
21787;DHT22;11055;50.870;4.316;2023-08-08T07:49:08;15.60;99.90
21787;DHT22;11055;50.870;4.316;2023-08-08T07:51:35;15.50;99.90
21787;DHT22;11055;50.870;4.316;2023-08-08T07:54:01;15.60;99.90
21787;DHT22;11055;50.870;4.316;2023-08-08T07:56:27;15.70;99.90
21787;DHT22;11055;50.870;4.316;2023-08-08T07:58:53;15.70;99.90
21787;DHT22;11055;50.870;4.316;2023-08-08T08:01:18;15.80;99.90
21787;DHT22;11055;50.870;4.316;2023-08-08T08:03:44;15.90;99.90
21787;DHT22;11055;50.870;4.316;2023-08-08T08:06:11;16.00;99.90
21787;DHT22;11055;50.870;4.316;2023-08-08T08:08:37;16.00;99.90
21787;DHT22;11055;50.870;4.316;2023-08-08T08:11:03;15.90;99.90
21787;DHT22;11055;50.870;4.316;2023-08-08T08:13:28;16.00;99.90
21787;DHT22;11055;50.870;4.316;2023-08-08T08:15:54;16.10;99.90
21787;DHT22;11055;50.870;4.316;2023-08-08T08:18:19;16.20;99.90
21787;DHT22;11055;50.870;4.316;2023-08-08T08:20:46;16.20;99.90
21787;DHT22;11055;50.870;4.316;2023-08-08T08:23:12;16.20;99.90
21787;DHT22;11055;50.870;4.316;2023-08-08T08:25:37;16.30;99.90
21787;DHT22;11055;50.870;4.316;2023-08-08T08:28:03;16.30;99.90
21787;DHT22;11055;50.870;4.316;2023-08-08T08:30:29;16.40;99.90
21787;DHT22;11055;50.870;4.316;2023-08-08T08:32:54;16.40;99.90
21787;DHT22;11055;50.870;4.316;2023-08-08T08:35:25;16.30;99.90
21787;DHT22;11055;50.870;4.316;2023-08-08T08:37:51;16.30;99.90
21787;DHT22;11055;50.870;4.316;2023-08-08T08:40:17;16.30;99.90
21787;DHT22;11055;50.870;4.316;2023-08-08T08:42:44;16.30;99.90
21787;DHT22;11055;50.870;4.316;2023-08-08T08:45:11;16.30;99.90
21787;DHT22;11055;50.870;4.316;2023-08-08T08:47:40;16.30;99.90
21787;DHT22;11055;50.870;4.316;2023-08-08T08:50:09;16.30;99.90
21787;DHT22;11055;50.870;4.316;2023-08-08T08:52:35;16.40;99.90
21787;DHT22;11055;50.870;4.316;2023-08-08T08:55:02;16.40;99.90
21787;DHT22;11055;50.870;4.316;2023-08-08T08:57:28;16.50;99.90
21787;DHT22;11055;50.870;4.316;2023-08-08T08:59:54;16.60;99.90
21787;DHT22;11055;50.870;4.316;2023-08-08T09:02:21;16.60;99.90
21787;DHT22;11055;50.870;4.316;2023-08-08T09:04:48;16.60;99.90
21787;DHT22;11055;50.870;4.316;2023-08-08T09:07:14;16.70;99.90
21787;DHT22;11055;50.870;4.316;2023-08-08T09:09:44;16.70;99.90
21787;DHT22;11055;50.870;4.316;2023-08-08T09:12:10;16.80;99.90
21787;DHT22;11055;50.870;4.316;2023-08-08T09:14:40;16.90;99.90
21787;DHT22;11055;50.870;4.316;2023-08-08T09:17:11;17.00;99.90
21787;DHT22;11055;50.870;4.316;2023-08-08T09:19:37;17.10;99.90
21787;DHT22;11055;50.870;4.316;2023-08-08T09:22:03;17.20;99.90
21787;DHT22;11055;50.870;4.316;2023-08-08T09:24:29;17.30;99.90
21787;DHT22;11055;50.870;4.316;2023-08-08T09:26:55;17.30;99.90
21787;DHT22;11055;50.870;4.316;2023-08-08T09:29:20;17.40;99.90
21787;DHT22;11055;50.870;4.316;2023-08-08T09:31:47;17.50;99.90
21787;DHT22;11055;50.870;4.316;2023-08-08T09:34:13;17.60;99.90
21787;DHT22;11055;50.870;4.316;2023-08-08T09:36:40;17.70;99.90
21787;DHT22;11055;50.870;4.316;2023-08-08T09:39:05;17.80;99.90
21787;DHT22;11055;50.870;4.316;2023-08-08T09:41:32;17.80;99.90
21787;DHT22;11055;50.870;4.316;2023-08-08T09:43:59;17.90;99.90
21787;DHT22;11055;50.870;4.316;2023-08-08T09:46:25;18.00;99.90
21787;DHT22;11055;50.870;4.316;2023-08-08T09:48:51;18.00;99.90
21787;DHT22;11055;50.870;4.316;2023-08-08T09:51:18;18.00;99.90
21787;DHT22;11055;50.870;4.316;2023-08-08T09:53:45;18.10;99.90
21787;DHT22;11055;50.870;4.316;2023-08-08T09:56:14;18.10;99.90
21787;DHT22;11055;50.870;4.316;2023-08-08T09:58:42;18.20;99.90
21787;DHT22;11055;50.870;4.316;2023-08-08T10:01:08;18.20;99.90
21787;DHT22;11055;50.870;4.316;2023-08-08T10:03:34;18.10;99.90
21787;DHT22;11055;50.870;4.316;2023-08-08T10:06:02;18.00;99.90
21787;DHT22;11055;50.870;4.316;2023-08-08T10:08:29;18.00;99.90
21787;DHT22;11055;50.870;4.316;2023-08-08T10:10:55;18.00;99.90
21787;DHT22;11055;50.870;4.316;2023-08-08T10:13:26;18.00;99.90
21787;DHT22;11055;50.870;4.316;2023-08-08T10:15:54;18.00;99.90
21787;DHT22;11055;50.870;4.316;2023-08-08T10:18:23;18.10;99.90
21787;DHT22;11055;50.870;4.316;2023-08-08T10:20:50;18.10;99.90
21787;DHT22;11055;50.870;4.316;2023-08-08T10:23:17;18.10;99.90
21787;DHT22;11055;50.870;4.316;2023-08-08T10:25:48;18.20;99.90
21787;DHT22;11055;50.870;4.316;2023-08-08T10:28:18;18.20;99.90
21787;DHT22;11055;50.870;4.316;2023-08-08T10:30:48;18.20;99.90
21787;DHT22;11055;50.870;4.316;2023-08-08T10:33:20;18.10;99.90
21787;DHT22;11055;50.870;4.316;2023-08-08T10:36:00;18.00;99.90
21787;DHT22;11055;50.870;4.316;2023-08-08T10:38:37;18.00;99.90
21787;DHT22;11055;50.870;4.316;2023-08-08T10:41:03;18.00;99.90
21787;DHT22;11055;50.870;4.316;2023-08-08T10:43:30;18.00;99.90
21787;DHT22;11055;50.870;4.316;2023-08-08T10:46:03;18.10;99.90
21787;DHT22;11055;50.870;4.316;2023-08-08T10:48:30;17.90;99.90
21787;DHT22;11055;50.870;4.316;2023-08-08T10:50:58;17.90;99.90
21787;DHT22;11055;50.870;4.316;2023-08-08T10:53:28;17.80;99.90
21787;DHT22;11055;50.870;4.316;2023-08-08T10:56:04;17.80;99.90
21787;DHT22;11055;50.870;4.316;2023-08-08T10:58:47;17.80;99.90
21787;DHT22;11055;50.870;4.316;2023-08-08T11:01:13;17.80;99.90
21787;DHT22;11055;50.870;4.316;2023-08-08T11:03:40;17.80;99.90
21787;DHT22;11055;50.870;4.316;2023-08-08T11:06:07;17.90;99.90
21787;DHT22;11055;50.870;4.316;2023-08-08T11:08:33;18.10;99.90
21787;DHT22;11055;50.870;4.316;2023-08-08T11:11:00;18.30;99.90
21787;DHT22;11055;50.870;4.316;2023-08-08T11:13:26;18.50;99.90
21787;DHT22;11055;50.870;4.316;2023-08-08T11:15:52;18.60;99.90
21787;DHT22;11055;50.870;4.316;2023-08-08T11:18:18;18.70;99.90
21787;DHT22;11055;50.870;4.316;2023-08-08T11:20:44;18.70;99.90
21787;DHT22;11055;50.870;4.316;2023-08-08T11:23:10;18.80;99.90
21787;DHT22;11055;50.870;4.316;2023-08-08T11:25:40;18.70;99.90
21787;DHT22;11055;50.870;4.316;2023-08-08T11:28:06;18.60;99.90
21787;DHT22;11055;50.870;4.316;2023-08-08T11:30:37;18.70;99.90
21787;DHT22;11055;50.870;4.316;2023-08-08T11:33:04;18.80;99.90
21787;DHT22;11055;50.870;4.316;2023-08-08T11:35:30;18.70;99.90
21787;DHT22;11055;50.870;4.316;2023-08-08T11:37:57;18.70;99.90
21787;DHT22;11055;50.870;4.316;2023-08-08T11:40:25;18.70;99.90
21787;DHT22;11055;50.870;4.316;2023-08-08T11:42:51;18.60;99.90
21787;DHT22;11055;50.870;4.316;2023-08-08T11:45:17;18.60;99.90
21787;DHT22;11055;50.870;4.316;2023-08-08T11:47:47;18.60;99.90
21787;DHT22;11055;50.870;4.316;2023-08-08T11:50:13;18.60;99.90
21787;DHT22;11055;50.870;4.316;2023-08-08T11:52:44;18.60;99.90
21787;DHT22;11055;50.870;4.316;2023-08-08T11:55:11;18.70;99.90
21787;DHT22;11055;50.870;4.316;2023-08-08T11:57:38;18.60;99.90
21787;DHT22;11055;50.870;4.316;2023-08-08T12:00:09;18.60;99.90
21787;DHT22;11055;50.870;4.316;2023-08-08T12:02:41;18.70;99.90
21787;DHT22;11055;50.870;4.316;2023-08-08T12:05:12;18.70;99.90
21787;DHT22;11055;50.870;4.316;2023-08-08T12:07:40;18.80;99.90
21787;DHT22;11055;50.870;4.316;2023-08-08T12:10:15;18.80;99.90
21787;DHT22;11055;50.870;4.316;2023-08-08T12:12:45;18.70;99.90
21787;DHT22;11055;50.870;4.316;2023-08-08T12:15:11;18.90;99.90
21787;DHT22;11055;50.870;4.316;2023-08-08T12:17:37;19.20;99.90
21787;DHT22;11055;50.870;4.316;2023-08-08T12:20:05;19.40;99.90
21787;DHT22;11055;50.870;4.316;2023-08-08T12:22:32;19.40;99.90
21787;DHT22;11055;50.870;4.316;2023-08-08T12:24:57;19.50;99.90
21787;DHT22;11055;50.870;4.316;2023-08-08T12:27:23;19.50;99.90
21787;DHT22;11055;50.870;4.316;2023-08-08T12:29:49;19.40;99.90
21787;DHT22;11055;50.870;4.316;2023-08-08T12:32:14;19.50;99.90
21787;DHT22;11055;50.870;4.316;2023-08-08T12:34:40;19.70;99.90
21787;DHT22;11055;50.870;4.316;2023-08-08T12:37:06;19.70;99.90
21787;DHT22;11055;50.870;4.316;2023-08-08T12:39:31;19.60;99.90
21787;DHT22;11055;50.870;4.316;2023-08-08T12:41:57;19.50;99.90
21787;DHT22;11055;50.870;4.316;2023-08-08T12:44:23;19.40;99.90
21787;DHT22;11055;50.870;4.316;2023-08-08T12:46:49;19.50;99.90
21787;DHT22;11055;50.870;4.316;2023-08-08T12:49:14;19.60;99.90
21787;DHT22;11055;50.870;4.316;2023-08-08T12:51:40;19.70;99.90
21787;DHT22;11055;50.870;4.316;2023-08-08T12:54:06;20.00;99.90
21787;DHT22;11055;50.870;4.316;2023-08-08T12:56:31;20.00;99.90
21787;DHT22;11055;50.870;4.316;2023-08-08T12:58:57;19.90;99.90
21787;DHT22;11055;50.870;4.316;2023-08-08T13:01:23;19.80;99.90
21787;DHT22;11055;50.870;4.316;2023-08-08T13:03:50;19.70;99.90
21787;DHT22;11055;50.870;4.316;2023-08-08T13:06:16;19.70;99.90
21787;DHT22;11055;50.870;4.316;2023-08-08T13:08:42;19.70;99.90
21787;DHT22;11055;50.870;4.316;2023-08-08T13:11:08;19.90;99.90
21787;DHT22;11055;50.870;4.316;2023-08-08T13:13:34;20.00;99.90
21787;DHT22;11055;50.870;4.316;2023-08-08T13:15:59;19.80;99.90
21787;DHT22;11055;50.870;4.316;2023-08-08T13:18:25;19.70;99.90
21787;DHT22;11055;50.870;4.316;2023-08-08T13:20:51;19.70;99.90
21787;DHT22;11055;50.870;4.316;2023-08-08T13:23:17;19.60;99.90
21787;DHT22;11055;50.870;4.316;2023-08-08T13:25:43;19.50;99.90
21787;DHT22;11055;50.870;4.316;2023-08-08T13:28:09;19.50;99.90
21787;DHT22;11055;50.870;4.316;2023-08-08T13:30:35;19.50;99.90
21787;DHT22;11055;50.870;4.316;2023-08-08T13:33:01;19.50;99.90
21787;DHT22;11055;50.870;4.316;2023-08-08T13:35:26;19.50;99.90
21787;DHT22;11055;50.870;4.316;2023-08-08T13:37:52;19.50;99.90
21787;DHT22;11055;50.870;4.316;2023-08-08T13:40:20;19.60;99.90
21787;DHT22;11055;50.870;4.316;2023-08-08T13:42:46;19.60;99.90
21787;DHT22;11055;50.870;4.316;2023-08-08T13:45:15;19.60;99.90
21787;DHT22;11055;50.870;4.316;2023-08-08T13:47:41;19.70;99.90
21787;DHT22;11055;50.870;4.316;2023-08-08T13:50:07;19.70;99.90
21787;DHT22;11055;50.870;4.316;2023-08-08T13:52:33;19.70;99.90
21787;DHT22;11055;50.870;4.316;2023-08-08T13:54:59;19.70;99.90
21787;DHT22;11055;50.870;4.316;2023-08-08T13:57:25;19.80;99.90
21787;DHT22;11055;50.870;4.316;2023-08-08T13:59:51;19.80;99.90
21787;DHT22;11055;50.870;4.316;2023-08-08T14:02:17;20.00;99.90
21787;DHT22;11055;50.870;4.316;2023-08-08T14:04:44;20.10;99.90
21787;DHT22;11055;50.870;4.316;2023-08-08T14:07:10;20.00;99.90
21787;DHT22;11055;50.870;4.316;2023-08-08T14:09:36;19.90;99.90
21787;DHT22;11055;50.870;4.316;2023-08-08T14:12:02;19.70;99.90
21787;DHT22;11055;50.870;4.316;2023-08-08T14:14:27;19.70;99.90
21787;DHT22;11055;50.870;4.316;2023-08-08T14:16:53;19.80;99.90
21787;DHT22;11055;50.870;4.316;2023-08-08T14:19:19;19.70;99.90
21787;DHT22;11055;50.870;4.316;2023-08-08T14:21:44;19.70;99.90
21787;DHT22;11055;50.870;4.316;2023-08-08T14:24:10;19.70;99.90
21787;DHT22;11055;50.870;4.316;2023-08-08T14:26:36;19.60;99.90
21787;DHT22;11055;50.870;4.316;2023-08-08T14:29:02;19.60;99.90
21787;DHT22;11055;50.870;4.316;2023-08-08T14:31:28;19.50;99.90
21787;DHT22;11055;50.870;4.316;2023-08-08T14:33:53;19.50;99.90
21787;DHT22;11055;50.870;4.316;2023-08-08T14:36:19;19.30;99.90
21787;DHT22;11055;50.870;4.316;2023-08-08T14:38:45;19.20;99.90
21787;DHT22;11055;50.870;4.316;2023-08-08T14:41:10;19.20;99.90
21787;DHT22;11055;50.870;4.316;2023-08-08T14:43:36;19.10;99.90
21787;DHT22;11055;50.870;4.316;2023-08-08T14:46:01;19.00;99.90
21787;DHT22;11055;50.870;4.316;2023-08-08T14:48:27;19.00;99.90
21787;DHT22;11055;50.870;4.316;2023-08-08T14:50:53;19.10;99.90
21787;DHT22;11055;50.870;4.316;2023-08-08T14:53:18;19.10;99.90
21787;DHT22;11055;50.870;4.316;2023-08-08T14:55:44;19.00;99.90
21787;DHT22;11055;50.870;4.316;2023-08-08T14:58:10;19.10;99.90
21787;DHT22;11055;50.870;4.316;2023-08-08T15:00:36;19.00;99.90
21787;DHT22;11055;50.870;4.316;2023-08-08T15:03:01;19.00;99.90
21787;DHT22;11055;50.870;4.316;2023-08-08T15:05:27;19.00;99.90
21787;DHT22;11055;50.870;4.316;2023-08-08T15:07:53;18.90;99.90
21787;DHT22;11055;50.870;4.316;2023-08-08T15:10:18;18.90;99.90
21787;DHT22;11055;50.870;4.316;2023-08-08T15:12:44;18.90;99.90
21787;DHT22;11055;50.870;4.316;2023-08-08T15:15:11;18.90;99.90
21787;DHT22;11055;50.870;4.316;2023-08-08T15:17:37;18.90;99.90
21787;DHT22;11055;50.870;4.316;2023-08-08T15:20:03;18.90;99.90
21787;DHT22;11055;50.870;4.316;2023-08-08T15:22:28;18.90;99.90
21787;DHT22;11055;50.870;4.316;2023-08-08T15:24:54;18.80;99.90
21787;DHT22;11055;50.870;4.316;2023-08-08T15:27:20;18.60;99.90
21787;DHT22;11055;50.870;4.316;2023-08-08T15:29:45;18.60;99.90